UKWW/VIN METAR and TAF weather

Enter ICAO airport designator
Station Type Date Time Source
UKWW METAR 2019/06/27 08:30 UTC NOAA

UKWW 270830Z 22005MPS 180V270 9999 NSC 28/18 Q1012 R31/0///65 TEMPO VRB12G17MPS 1500 TSRAGR SQ BKN005 BKN015CB


Station Type Date Time Source
UKWW Decoded METAR 2019/06/27 08:30 UTC NOAA

Station name not available
Jun 27, 2019 - 04:30 AM EDT / 2019.06.27 0830 UTC
Wind: from the SW (220 degrees) at 11 MPH (10 KT) (direction variable):0
Visibility: greater than 7 mile(s):0
Weather: Cumulonimbus clouds observed
Temperature: 82 F (28 C)
Dew Point: 64 F (18 C)
Relative Humidity: 54%
Pressure (altimeter): 29.88 in. Hg (1012 hPa)
ob: UKWW 270830Z 22005MPS 180V270 9999 NSC 28/18 Q1012 R31/0///65 TEMPO VRB12G17MPS 1500 TSRAGR SQ BKN005 BKN015CB
cycle: 8

Station Type Date Time Source
UKWW TAF 2010/03/21 10:45 UTC NOAA

TAF UKWW 211045Z 2112/2212 24005G10MPS 9999 SCT020 BKN070
TEMPO 2115/2207 1400 -SHRA BR SCT004 BKN007CB
FM220700 34007G12MPS 9999 SCT015 BKN100 TX11/2112Z TN01/2204Z

Example: see airport list